sensor_id;sensor_type;location;lat;lon;timestamp;pressure;altitude;pressure_sealevel;temperature;humidity
52343;BME280;38277;51.972;4.624;2023-02-20T00:04:26;102690.0;;;8.2;82.5
52343;BME280;38277;51.972;4.624;2023-02-20T00:09:04;102690.0;;;8.1;82.5
52343;BME280;38277;51.972;4.624;2023-02-20T00:14:24;102680.0;;;8.1;83.0
52343;BME280;38277;51.972;4.624;2023-02-20T00:18:48;102680.0;;;8.1;83.0
52343;BME280;38277;51.972;4.624;2023-02-20T00:23:56;102680.0;;;8.0;83.5
52343;BME280;38277;51.972;4.624;2023-02-20T00:27:10;102670.0;;;8.0;84.0
52343;BME280;38277;51.972;4.624;2023-02-20T00:31:37;102660.0;;;8.0;84.5
52343;BME280;38277;51.972;4.624;2023-02-20T00:35:45;102650.0;;;7.9;85.0
52343;BME280;38277;51.972;4.624;2023-02-20T00:40:22;102650.0;;;7.9;85.0
52343;BME280;38277;51.972;4.624;2023-02-20T00:44:56;102650.0;;;7.9;85.5
52343;BME280;38277;51.972;4.624;2023-02-20T00:49:38;102640.0;;;7.9;86.0
52343;BME280;38277;51.972;4.624;2023-02-20T00:54:09;102650.0;;;7.9;86.5
52343;BME280;38277;51.972;4.624;2023-02-20T00:58:37;102640.0;;;7.9;87.0
52343;BME280;38277;51.972;4.624;2023-02-20T01:02:55;102630.0;;;8.0;87.5
52343;BME280;38277;51.972;4.624;2023-02-20T01:07:20;102620.0;;;8.0;88.0
52343;BME280;38277;51.972;4.624;2023-02-20T01:11:50;102630.0;;;8.0;88.0
52343;BME280;38277;51.972;4.624;2023-02-20T01:16:12;102620.0;;;8.0;88.5
52343;BME280;38277;51.972;4.624;2023-02-20T01:20:43;102620.0;;;8.0;89.0
52343;BME280;38277;51.972;4.624;2023-02-20T01:25:13;102600.0;;;8.1;89.5
52343;BME280;38277;51.972;4.624;2023-02-20T01:34:37;102580.0;;;8.2;90.0
52343;BME280;38277;51.972;4.624;2023-02-20T01:38:53;102580.0;;;8.2;90.0
52343;BME280;38277;51.972;4.624;2023-02-20T01:48:05;102560.0;;;8.3;91.0
52343;BME280;38277;51.972;4.624;2023-02-20T01:52:16;102550.0;;;8.3;91.0
52343;BME280;38277;51.972;4.624;2023-02-20T01:56:54;102550.0;;;8.4;91.0
52343;BME280;38277;51.972;4.624;2023-02-20T02:01:22;102540.0;;;8.5;91.5
52343;BME280;38277;51.972;4.624;2023-02-20T02:10:24;102530.0;;;8.5;91.5
52343;BME280;38277;51.972;4.624;2023-02-20T02:21:27;102530.0;;;8.6;91.0
52343;BME280;38277;51.972;4.624;2023-02-20T02:28:23;102510.0;;;8.7;91.0
52343;BME280;38277;51.972;4.624;2023-02-20T02:35:31;102520.0;;;8.7;90.5
52343;BME280;38277;51.972;4.624;2023-02-20T02:40:22;102510.0;;;8.7;90.5
52343;BME280;38277;51.972;4.624;2023-02-20T02:44:10;102510.0;;;8.7;90.5
52343;BME280;38277;51.972;4.624;2023-02-20T02:47:48;102510.0;;;8.7;90.5
52343;BME280;38277;51.972;4.624;2023-02-20T02:51:08;102500.0;;;8.8;90.5
52343;BME280;38277;51.972;4.624;2023-02-20T02:52:33;102500.0;;;8.7;90.5
52343;BME280;38277;51.972;4.624;2023-02-20T02:55:33;102510.0;;;8.8;90.5
52343;BME280;38277;51.972;4.624;2023-02-20T02:59:46;102510.0;;;8.8;90.5
52343;BME280;38277;51.972;4.624;2023-02-20T03:04:17;102510.0;;;8.9;90.0
52343;BME280;38277;51.972;4.624;2023-02-20T03:09:05;102500.0;;;8.9;90.0
52343;BME280;38277;51.972;4.624;2023-02-20T03:13:47;102490.0;;;8.9;90.0
52343;BME280;38277;51.972;4.624;2023-02-20T03:18:28;102500.0;;;9.0;90.0
52343;BME280;38277;51.972;4.624;2023-02-20T03:22:29;102500.0;;;9.0;90.0
52343;BME280;38277;51.972;4.624;2023-02-20T03:31:20;102500.0;;;9.1;90.0
52343;BME280;38277;51.972;4.624;2023-02-20T03:36:10;102510.0;;;9.1;90.0
52343;BME280;38277;51.972;4.624;2023-02-20T03:40:39;102490.0;;;9.2;89.5
52343;BME280;38277;51.972;4.624;2023-02-20T03:44:46;102500.0;;;9.2;89.5
52343;BME280;38277;51.972;4.624;2023-02-20T03:49:42;102500.0;;;9.3;89.0
52343;BME280;38277;51.972;4.624;2023-02-20T03:53:58;102480.0;;;9.3;89.0
52343;BME280;38277;51.972;4.624;2023-02-20T03:58:45;102480.0;;;9.3;88.5
52343;BME280;38277;51.972;4.624;2023-02-20T04:07:41;102470.0;;;9.5;88.0
52343;BME280;38277;51.972;4.624;2023-02-20T04:12:01;102480.0;;;9.5;88.0
52343;BME280;38277;51.972;4.624;2023-02-20T04:16:50;102480.0;;;9.5;87.5
52343;BME280;38277;51.972;4.624;2023-02-20T04:20:49;102480.0;;;9.5;87.5
52343;BME280;38277;51.972;4.624;2023-02-20T04:25:18;102470.0;;;9.6;86.0
52343;BME280;38277;51.972;4.624;2023-02-20T04:29:57;102480.0;;;9.6;86.0
52343;BME280;38277;51.972;4.624;2023-02-20T04:34:27;102470.0;;;9.6;86.0
52343;BME280;38277;51.972;4.624;2023-02-20T04:43:23;102480.0;;;9.6;84.5
52343;BME280;38277;51.972;4.624;2023-02-20T04:48:11;102470.0;;;9.7;84.0
52343;BME280;38277;51.972;4.624;2023-02-20T04:52:38;102470.0;;;9.6;84.0
52343;BME280;38277;51.972;4.624;2023-02-20T04:56:53;102490.0;;;9.7;83.5
52343;BME280;38277;51.972;4.624;2023-02-20T05:01:20;102480.0;;;9.7;83.0
52343;BME280;38277;51.972;4.624;2023-02-20T05:06:02;102480.0;;;9.6;83.0
52343;BME280;38277;51.972;4.624;2023-02-20T05:10:13;102480.0;;;9.6;83.5
52343;BME280;38277;51.972;4.624;2023-02-20T05:14:58;102480.0;;;9.6;83.5
52343;BME280;38277;51.972;4.624;2023-02-20T05:24:05;102480.0;;;9.6;83.0
52343;BME280;38277;51.972;4.624;2023-02-20T05:28:23;102480.0;;;9.6;83.0
52343;BME280;38277;51.972;4.624;2023-02-20T05:37:18;102480.0;;;9.6;83.0
52343;BME280;38277;51.972;4.624;2023-02-20T05:42:41;102500.0;;;9.6;83.0
52343;BME280;38277;51.972;4.624;2023-02-20T05:46:39;102480.0;;;9.5;83.5
52343;BME280;38277;51.972;4.624;2023-02-20T05:50:53;102480.0;;;9.5;83.5
52343;BME280;38277;51.972;4.624;2023-02-20T05:55:29;102490.0;;;9.5;83.5
52343;BME280;38277;51.972;4.624;2023-02-20T06:00:48;102480.0;;;9.5;83.5
52343;BME280;38277;51.972;4.624;2023-02-20T06:06:06;102470.0;;;9.5;83.5
52343;BME280;38277;51.972;4.624;2023-02-20T06:08:58;102480.0;;;9.5;83.0
52343;BME280;38277;51.972;4.624;2023-02-20T06:13:38;102480.0;;;9.5;83.0
52343;BME280;38277;51.972;4.624;2023-02-20T06:18:07;102470.0;;;9.5;83.5
52343;BME280;38277;51.972;4.624;2023-02-20T06:22:34;102470.0;;;9.4;83.5
52343;BME280;38277;51.972;4.624;2023-02-20T06:27:38;102480.0;;;9.5;83.5
52343;BME280;38277;51.972;4.624;2023-02-20T06:31:30;102480.0;;;9.5;83.5
52343;BME280;38277;51.972;4.624;2023-02-20T06:36:04;102480.0;;;9.5;84.0
52343;BME280;38277;51.972;4.624;2023-02-20T06:40:37;102500.0;;;9.6;84.0
52343;BME280;38277;51.972;4.624;2023-02-20T06:44:48;102490.0;;;9.6;83.5
52343;BME280;38277;51.972;4.624;2023-02-20T06:49:37;102490.0;;;9.6;83.5
52343;BME280;38277;51.972;4.624;2023-02-20T06:53:45;102480.0;;;9.5;83.5
52343;BME280;38277;51.972;4.624;2023-02-20T06:58:33;102490.0;;;9.5;84.0
52343;BME280;38277;51.972;4.624;2023-02-20T07:03:11;102490.0;;;9.6;83.5
52343;BME280;38277;51.972;4.624;2023-02-20T07:07:24;102480.0;;;9.6;84.0
52343;BME280;38277;51.972;4.624;2023-02-20T07:12:11;102490.0;;;9.6;84.0
52343;BME280;38277;51.972;4.624;2023-02-20T07:16:26;102480.0;;;9.6;84.0
52343;BME280;38277;51.972;4.624;2023-02-20T07:25:34;102490.0;;;9.6;84.5
52343;BME280;38277;51.972;4.624;2023-02-20T07:30:08;102470.0;;;9.6;84.0
52343;BME280;38277;51.972;4.624;2023-02-20T07:34:29;102480.0;;;9.7;84.0
52343;BME280;38277;51.972;4.624;2023-02-20T07:48:07;102490.0;;;9.8;84.0
52343;BME280;38277;51.972;4.624;2023-02-20T07:52:14;102490.0;;;9.8;84.0
52343;BME280;38277;51.972;4.624;2023-02-20T08:01:21;102490.0;;;9.9;84.0
52343;BME280;38277;51.972;4.624;2023-02-20T08:05:48;102480.0;;;10.0;83.5
52343;BME280;38277;51.972;4.624;2023-02-20T08:10:32;102490.0;;;10.0;83.0
52343;BME280;38277;51.972;4.624;2023-02-20T08:19:25;102500.0;;;10.0;83.0
52343;BME280;38277;51.972;4.624;2023-02-20T08:24:05;102500.0;;;10.1;83.0
52343;BME280;38277;51.972;4.624;2023-02-20T08:28:41;102510.0;;;10.1;82.5
52343;BME280;38277;51.972;4.624;2023-02-20T08:32:44;102500.0;;;10.1;83.0
52343;BME280;38277;51.972;4.624;2023-02-20T08:37:15;102500.0;;;10.1;83.0
52343;BME280;38277;51.972;4.624;2023-02-20T08:41:51;102500.0;;;10.1;83.0
52343;BME280;38277;51.972;4.624;2023-02-20T08:46:25;102500.0;;;10.1;83.0
52343;BME280;38277;51.972;4.624;2023-02-20T08:50:42;102490.0;;;10.1;83.0
52343;BME280;38277;51.972;4.624;2023-02-20T08:55:16;102500.0;;;10.1;82.5
52343;BME280;38277;51.972;4.624;2023-02-20T08:59:58;102500.0;;;10.0;83.0
52343;BME280;38277;51.972;4.624;2023-02-20T09:04:18;102470.0;;;10.1;83.0
52343;BME280;38277;51.972;4.624;2023-02-20T09:09:10;102490.0;;;10.1;83.5
52343;BME280;38277;51.972;4.624;2023-02-20T09:13:26;102480.0;;;10.2;83.0
52343;BME280;38277;51.972;4.624;2023-02-20T09:18:07;102480.0;;;10.3;82.5
52343;BME280;38277;51.972;4.624;2023-02-20T09:22:39;102470.0;;;10.5;81.5
52343;BME280;38277;51.972;4.624;2023-02-20T09:31:32;102480.0;;;10.6;81.0
52343;BME280;38277;51.972;4.624;2023-02-20T09:35:57;102500.0;;;10.6;80.0
52343;BME280;38277;51.972;4.624;2023-02-20T09:40:20;102510.0;;;10.7;80.0
52343;BME280;38277;51.972;4.624;2023-02-20T09:49:35;102510.0;;;10.7;79.5
52343;BME280;38277;51.972;4.624;2023-02-20T09:53:50;102500.0;;;10.7;79.0
52343;BME280;38277;51.972;4.624;2023-02-20T09:58:49;102490.0;;;10.6;79.0
52343;BME280;38277;51.972;4.624;2023-02-20T10:07:38;102500.0;;;10.7;79.0
52343;BME280;38277;51.972;4.624;2023-02-20T10:12:06;102480.0;;;10.6;79.0
52343;BME280;38277;51.972;4.624;2023-02-20T10:21:52;102490.0;;;10.6;79.0
52343;BME280;38277;51.972;4.624;2023-02-20T10:25:38;102490.0;;;10.6;79.0
52343;BME280;38277;51.972;4.624;2023-02-20T10:30:55;102490.0;;;10.5;79.0
52343;BME280;38277;51.972;4.624;2023-02-20T10:35:08;102480.0;;;10.6;78.5
52343;BME280;38277;51.972;4.624;2023-02-20T10:43:37;102490.0;;;10.6;78.5
52343;BME280;38277;51.972;4.624;2023-02-20T10:48:53;102480.0;;;10.6;79.0
52343;BME280;38277;51.972;4.624;2023-02-20T10:52:28;102480.0;;;10.8;78.0
52343;BME280;38277;51.972;4.624;2023-02-20T10:57:04;102490.0;;;10.8;78.5
52343;BME280;38277;51.972;4.624;2023-02-20T11:01:22;102490.0;;;10.8;78.5
52343;BME280;38277;51.972;4.624;2023-02-20T11:06:53;102480.0;;;10.8;78.5
52343;BME280;38277;51.972;4.624;2023-02-20T11:10:38;102480.0;;;10.9;77.5
52343;BME280;38277;51.972;4.624;2023-02-20T11:15:46;102470.0;;;10.9;78.0
52343;BME280;38277;51.972;4.624;2023-02-20T11:19:40;102460.0;;;10.9;77.5
52343;BME280;38277;51.972;4.624;2023-02-20T11:24:43;102470.0;;;10.9;77.5
52343;BME280;38277;51.972;4.624;2023-02-20T11:28:25;102460.0;;;11.0;77.5
52343;BME280;38277;51.972;4.624;2023-02-20T11:33:44;102440.0;;;11.0;77.5
52343;BME280;38277;51.972;4.624;2023-02-20T11:37:23;102430.0;;;11.1;77.5
52343;BME280;38277;51.972;4.624;2023-02-20T11:42:53;102420.0;;;11.1;77.0
52343;BME280;38277;51.972;4.624;2023-02-20T11:46:34;102420.0;;;11.2;77.5
52343;BME280;38277;51.972;4.624;2023-02-20T11:50:43;102430.0;;;11.2;77.5
52343;BME280;38277;51.972;4.624;2023-02-20T11:55:37;102420.0;;;11.4;76.5
52343;BME280;38277;51.972;4.624;2023-02-20T12:00:10;102440.0;;;11.2;77.0
52343;BME280;38277;51.972;4.624;2023-02-20T12:04:18;102440.0;;;11.2;77.5
52343;BME280;38277;51.972;4.624;2023-02-20T12:08:57;102420.0;;;11.1;77.5
52343;BME280;38277;51.972;4.624;2023-02-20T12:13:26;102410.0;;;11.1;78.0
52343;BME280;38277;51.972;4.624;2023-02-20T12:18:39;102420.0;;;11.1;78.0
52343;BME280;38277;51.972;4.624;2023-02-20T12:26:50;102410.0;;;11.1;78.0
52343;BME280;38277;51.972;4.624;2023-02-20T12:32:21;102400.0;;;11.1;78.5
52343;BME280;38277;51.972;4.624;2023-02-20T12:41:24;102450.0;;;11.2;77.5
52343;BME280;38277;51.972;4.624;2023-02-20T12:46:00;102420.0;;;11.2;77.5
52343;BME280;38277;51.972;4.624;2023-02-20T12:49:54;102420.0;;;11.2;77.0
52343;BME280;38277;51.972;4.624;2023-02-20T12:55:53;102410.0;;;11.2;77.0
52343;BME280;38277;51.972;4.624;2023-02-20T13:00:02;102390.0;;;11.4;77.0
52343;BME280;38277;51.972;4.624;2023-02-20T13:03:21;102380.0;;;11.7;75.5
52343;BME280;38277;51.972;4.624;2023-02-20T13:07:27;102400.0;;;12.1;73.5
52343;BME280;38277;51.972;4.624;2023-02-20T13:11:54;102420.0;;;12.1;73.0
52343;BME280;38277;51.972;4.624;2023-02-20T13:16:33;102410.0;;;12.0;73.5
52343;BME280;38277;51.972;4.624;2023-02-20T13:21:00;102420.0;;;11.9;73.0
52343;BME280;38277;51.972;4.624;2023-02-20T13:25:38;102410.0;;;11.6;74.0
52343;BME280;38277;51.972;4.624;2023-02-20T13:30:17;102400.0;;;11.3;75.0
52343;BME280;38277;51.972;4.624;2023-02-20T13:34:39;102410.0;;;11.2;76.0
52343;BME280;38277;51.972;4.624;2023-02-20T13:39:41;102400.0;;;11.1;76.5
52343;BME280;38277;51.972;4.624;2023-02-20T13:43:30;102390.0;;;11.1;77.0
52343;BME280;38277;51.972;4.624;2023-02-20T13:48:16;102380.0;;;11.2;76.5
52343;BME280;38277;51.972;4.624;2023-02-20T13:52:39;102360.0;;;11.3;76.0
52343;BME280;38277;51.972;4.624;2023-02-20T13:56:55;102380.0;;;11.1;76.5
52343;BME280;38277;51.972;4.624;2023-02-20T14:01:52;102390.0;;;11.1;77.0
52343;BME280;38277;51.972;4.624;2023-02-20T14:10:31;102380.0;;;11.1;77.0
52343;BME280;38277;51.972;4.624;2023-02-20T14:14:44;102370.0;;;11.0;77.5
52343;BME280;38277;51.972;4.624;2023-02-20T14:19:40;102360.0;;;11.1;77.0
52343;BME280;38277;51.972;4.624;2023-02-20T14:23:43;102360.0;;;11.1;77.0
52343;BME280;38277;51.972;4.624;2023-02-20T14:28:28;102350.0;;;11.0;77.5
52343;BME280;38277;51.972;4.624;2023-02-20T14:32:42;102330.0;;;11.0;78.0
52343;BME280;38277;51.972;4.624;2023-02-20T14:37:15;102350.0;;;11.1;77.5
52343;BME280;38277;51.972;4.624;2023-02-20T14:46:20;102330.0;;;11.1;78.0
52343;BME280;38277;51.972;4.624;2023-02-20T14:51:02;102330.0;;;11.0;77.5
52343;BME280;38277;51.972;4.624;2023-02-20T14:55:37;102310.0;;;11.0;77.5
52343;BME280;38277;51.972;4.624;2023-02-20T14:59:43;102320.0;;;10.9;77.5
52343;BME280;38277;51.972;4.624;2023-02-20T15:08:54;102320.0;;;10.9;77.5
52343;BME280;38277;51.972;4.624;2023-02-20T15:13:43;102310.0;;;10.9;78.0
52343;BME280;38277;51.972;4.624;2023-02-20T15:18:08;102310.0;;;10.9;77.5
52343;BME280;38277;51.972;4.624;2023-02-20T15:26:51;102300.0;;;10.9;78.0
52343;BME280;38277;51.972;4.624;2023-02-20T15:31:41;102310.0;;;10.9;78.0
52343;BME280;38277;51.972;4.624;2023-02-20T15:36:01;102320.0;;;10.9;78.0
52343;BME280;38277;51.972;4.624;2023-02-20T15:40:20;102320.0;;;10.9;78.0
52343;BME280;38277;51.972;4.624;2023-02-20T15:44:57;102320.0;;;10.9;78.0
52343;BME280;38277;51.972;4.624;2023-02-20T15:49:17;102340.0;;;11.0;78.0
52343;BME280;38277;51.972;4.624;2023-02-20T15:53:52;102330.0;;;11.0;77.0
52343;BME280;38277;51.972;4.624;2023-02-20T15:59:08;102330.0;;;10.9;77.5
52343;BME280;38277;51.972;4.624;2023-02-20T16:03:33;102310.0;;;10.9;77.5
52343;BME280;38277;51.972;4.624;2023-02-20T16:07:24;102310.0;;;10.9;77.5
52343;BME280;38277;51.972;4.624;2023-02-20T16:11:46;102320.0;;;11.0;77.0
52343;BME280;38277;51.972;4.624;2023-02-20T16:16:41;102320.0;;;10.9;77.0
52343;BME280;38277;51.972;4.624;2023-02-20T16:21:00;102330.0;;;10.9;77.5
52343;BME280;38277;51.972;4.624;2023-02-20T16:25:15;102320.0;;;10.7;78.0
52343;BME280;38277;51.972;4.624;2023-02-20T16:30:05;102330.0;;;10.7;78.0
52343;BME280;38277;51.972;4.624;2023-02-20T16:35:11;102310.0;;;10.7;78.0
52343;BME280;38277;51.972;4.624;2023-02-20T16:39:35;102320.0;;;10.7;78.0
52343;BME280;38277;51.972;4.624;2023-02-20T16:43:31;102300.0;;;10.6;78.5
52343;BME280;38277;51.972;4.624;2023-02-20T16:48:48;102320.0;;;10.6;79.0
52343;BME280;38277;51.972;4.624;2023-02-20T16:52:15;102330.0;;;10.5;79.0
52343;BME280;38277;51.972;4.624;2023-02-20T16:56:58;102310.0;;;10.5;79.0
52343;BME280;38277;51.972;4.624;2023-02-20T17:01:38;102310.0;;;10.5;79.5
52343;BME280;38277;51.972;4.624;2023-02-20T17:06:53;102310.0;;;10.4;80.0
52343;BME280;38277;51.972;4.624;2023-02-20T17:10:34;102310.0;;;10.4;80.0
52343;BME280;38277;51.972;4.624;2023-02-20T17:14:58;102320.0;;;10.3;80.5
52343;BME280;38277;51.972;4.624;2023-02-20T17:19:26;102310.0;;;10.3;81.0
52343;BME280;38277;51.972;4.624;2023-02-20T17:24:29;102320.0;;;10.3;81.0
52343;BME280;38277;51.972;4.624;2023-02-20T17:32:46;102320.0;;;10.2;81.5
52343;BME280;38277;51.972;4.624;2023-02-20T17:37:24;102320.0;;;10.2;81.5
52343;BME280;38277;51.972;4.624;2023-02-20T17:41:58;102330.0;;;10.2;82.0
52343;BME280;38277;51.972;4.624;2023-02-20T17:46:22;102330.0;;;10.1;82.5
52343;BME280;38277;51.972;4.624;2023-02-20T17:55:26;102330.0;;;10.1;83.0
52343;BME280;38277;51.972;4.624;2023-02-20T17:59:55;102330.0;;;10.1;83.0
52343;BME280;38277;51.972;4.624;2023-02-20T18:04:17;102340.0;;;10.0;83.5
52343;BME280;38277;51.972;4.624;2023-02-20T18:13:39;102340.0;;;9.9;84.0
52343;BME280;38277;51.972;4.624;2023-02-20T18:18:05;102330.0;;;9.9;84.0
52343;BME280;38277;51.972;4.624;2023-02-20T18:31:38;102330.0;;;9.9;85.0
52343;BME280;38277;51.972;4.624;2023-02-20T18:35:43;102330.0;;;9.9;85.0
52343;BME280;38277;51.972;4.624;2023-02-20T18:40:26;102330.0;;;9.9;85.5
52343;BME280;38277;51.972;4.624;2023-02-20T18:44:59;102320.0;;;9.9;85.5
52343;BME280;38277;51.972;4.624;2023-02-20T18:49:33;102320.0;;;9.9;85.5
52343;BME280;38277;51.972;4.624;2023-02-20T18:53:57;102330.0;;;9.9;85.5
52343;BME280;38277;51.972;4.624;2023-02-20T18:58:38;102320.0;;;9.9;85.5
52343;BME280;38277;51.972;4.624;2023-02-20T19:02:57;102330.0;;;9.9;85.5
52343;BME280;38277;51.972;4.624;2023-02-20T19:07:19;102340.0;;;9.9;86.0
52343;BME280;38277;51.972;4.624;2023-02-20T19:12:36;102330.0;;;9.9;85.5
52343;BME280;38277;51.972;4.624;2023-02-20T19:16:19;102330.0;;;9.9;86.0
52343;BME280;38277;51.972;4.624;2023-02-20T19:20:50;102340.0;;;9.9;86.0
52343;BME280;38277;51.972;4.624;2023-02-20T19:25:34;102340.0;;;9.9;86.0
52343;BME280;38277;51.972;4.624;2023-02-20T19:29:46;102340.0;;;9.9;86.0
52343;BME280;38277;51.972;4.624;2023-02-20T19:34:28;102330.0;;;9.9;86.0
52343;BME280;38277;51.972;4.624;2023-02-20T19:38:42;102340.0;;;9.9;86.5
52343;BME280;38277;51.972;4.624;2023-02-20T19:48:08;102340.0;;;9.9;86.5
52343;BME280;38277;51.972;4.624;2023-02-20T19:52:33;102330.0;;;9.9;86.5
52343;BME280;38277;51.972;4.624;2023-02-20T19:57:08;102320.0;;;9.9;86.5
52343;BME280;38277;51.972;4.624;2023-02-20T20:01:32;102320.0;;;9.9;87.0
52343;BME280;38277;51.972;4.624;2023-02-20T20:10:13;102310.0;;;9.9;87.0
52343;BME280;38277;51.972;4.624;2023-02-20T20:15:06;102310.0;;;10.0;87.0
52343;BME280;38277;51.972;4.624;2023-02-20T20:19:28;102320.0;;;10.0;87.0
52343;BME280;38277;51.972;4.624;2023-02-20T20:25:46;102320.0;;;10.0;87.0
52343;BME280;38277;51.972;4.624;2023-02-20T20:28:20;102300.0;;;10.0;87.0
52343;BME280;38277;51.972;4.624;2023-02-20T20:32:50;102300.0;;;10.0;87.5
52343;BME280;38277;51.972;4.624;2023-02-20T20:37:26;102290.0;;;9.9;87.5
52343;BME280;38277;51.972;4.624;2023-02-20T20:41:51;102290.0;;;9.9;87.5
52343;BME280;38277;51.972;4.624;2023-02-20T20:46:22;102300.0;;;10.0;87.5
52343;BME280;38277;51.972;4.624;2023-02-20T20:51:02;102290.0;;;9.9;87.5
52343;BME280;38277;51.972;4.624;2023-02-20T20:55:38;102280.0;;;9.9;88.0
52343;BME280;38277;51.972;4.624;2023-02-20T21:00:17;102290.0;;;9.9;88.0
52343;BME280;38277;51.972;4.624;2023-02-20T21:04:37;102290.0;;;9.9;88.0
52343;BME280;38277;51.972;4.624;2023-02-20T21:08:42;102290.0;;;9.9;88.0
52343;BME280;38277;51.972;4.624;2023-02-20T21:13:38;102290.0;;;9.9;88.0
52343;BME280;38277;51.972;4.624;2023-02-20T21:18:05;102300.0;;;9.8;88.0
52343;BME280;38277;51.972;4.624;2023-02-20T21:22:15;102300.0;;;9.8;88.0
52343;BME280;38277;51.972;4.624;2023-02-20T21:26:43;102290.0;;;9.8;88.0
52343;BME280;38277;51.972;4.624;2023-02-20T21:31:30;102280.0;;;9.8;88.0
52343;BME280;38277;51.972;4.624;2023-02-20T21:36:09;102270.0;;;9.8;88.5
52343;BME280;38277;51.972;4.624;2023-02-20T21:40:30;102280.0;;;9.8;88.5
52343;BME280;38277;51.972;4.624;2023-02-20T21:49:19;102270.0;;;9.8;89.0
52343;BME280;38277;51.972;4.624;2023-02-20T21:53:49;102270.0;;;9.7;89.0
52343;BME280;38277;51.972;4.624;2023-02-20T21:58:40;102270.0;;;9.7;89.0
52343;BME280;38277;51.972;4.624;2023-02-20T22:03:08;102270.0;;;9.7;89.5
52343;BME280;38277;51.972;4.624;2023-02-20T22:12:08;102270.0;;;9.7;89.5
52343;BME280;38277;51.972;4.624;2023-02-20T22:16:41;102280.0;;;9.7;89.5
52343;BME280;38277;51.972;4.624;2023-02-20T22:25:39;102260.0;;;9.7;90.0
52343;BME280;38277;51.972;4.624;2023-02-20T22:30:08;102260.0;;;9.7;90.0
52343;BME280;38277;51.972;4.624;2023-02-20T22:34:33;102260.0;;;9.7;90.0
52343;BME280;38277;51.972;4.624;2023-02-20T22:38:47;102260.0;;;9.8;90.0
52343;BME280;38277;51.972;4.624;2023-02-20T22:43:40;102260.0;;;9.8;90.0
52343;BME280;38277;51.972;4.624;2023-02-20T22:47:50;102270.0;;;9.8;90.0
52343;BME280;38277;51.972;4.624;2023-02-20T22:52:29;102270.0;;;9.8;90.0
52343;BME280;38277;51.972;4.624;2023-02-20T22:57:04;102260.0;;;9.8;90.0
52343;BME280;38277;51.972;4.624;2023-02-20T23:01:29;102260.0;;;9.8;89.5
52343;BME280;38277;51.972;4.624;2023-02-20T23:05:47;102260.0;;;9.8;89.5
52343;BME280;38277;51.972;4.624;2023-02-20T23:10:32;102260.0;;;9.8;90.0
52343;BME280;38277;51.972;4.624;2023-02-20T23:14:50;102260.0;;;9.8;90.0
52343;BME280;38277;51.972;4.624;2023-02-20T23:19:23;102260.0;;;9.8;90.0
52343;BME280;38277;51.972;4.624;2023-02-20T23:24:01;102260.0;;;9.8;90.0
52343;BME280;38277;51.972;4.624;2023-02-20T23:28:34;102250.0;;;9.8;90.0
52343;BME280;38277;51.972;4.624;2023-02-20T23:32:50;102250.0;;;9.8;90.0
52343;BME280;38277;51.972;4.624;2023-02-20T23:37:29;102250.0;;;9.8;90.0
52343;BME280;38277;51.972;4.624;2023-02-20T23:41:46;102250.0;;;9.8;90.0
52343;BME280;38277;51.972;4.624;2023-02-20T23:51:09;102270.0;;;9.8;90.0
52343;BME280;38277;51.972;4.624;2023-02-20T23:55:31;102280.0;;;9.9;90.0
52343;BME280;38277;51.972;4.624;2023-02-20T23:59:49;102260.0;;;9.8;90.0
